Data for 04/17/2005

Time Sea-Level Adjusted Pressure Absolute Pressure Temperature Relative Humidity Dew Point   
(mb) (inHg) (mb) (inHg) (C) (F) (%) (C) (F)
00:05 1014 29.94 844 24.92 11.2 52.1 25 -8.1 17.4
00:10 1014 29.94 843 24.89 10.7 51.2 26 -7.9 17.8
00:15 1014 29.94 843 24.89 10.3 50.6 26 -8.3 17.1
00:20 1014 29.94 843 24.89 10.3 50.5 27 -7.9 17.7
00:25 1014 29.94 843 24.89 9.9 49.7 28 -7.8 18
00:30 1014 29.94 843 24.89 9.4 48.9 29 -7.7 18.2
00:35 1014 29.94 843 24.89 9.6 49.3 26 -8.8 16.1
00:40 1014 29.94 843 24.89 10.4 50.7 26 -8.1 17.4
00:45 1014 29.94 843 24.89 10.2 50.3 27 -7.9 17.9
00:50 1014 29.94 843 24.89 9.8 49.6 27 -8.1 17.4
00:55 1014 29.94 843 24.89 10 50 26 -8.6 16.5
01:00 1014 29.94 843 24.89 10.5 50.8 25 -8.7 16.4
01:05 1014 29.94 843 24.89 11 51.7 24 -8.9 16
01:10 1014 29.94 843 24.89 11.1 52.1 24 -8.8 16.2
01:15 1014 29.94 843 24.89 11.4 52.6 23 -8.9 16
01:20 1014 29.94 843 24.89 12 53.6 22 -9.2 15.4
01:25 1014 29.94 843 24.89 12 53.7 24 -7.8 17.9
01:30 1014 29.94 843 24.89 10.6 51 27 -7.7 18.1
01:35 1014 29.94 843 24.89 9.9 49.8 28 -8 17.6
01:40 1014 29.94 843 24.89 9.9 49.8 27 -8.4 16.9
01:45 1014 29.94 843 24.89 10.2 50.3 26 -8.2 17.2
01:50 1014 29.94 843 24.89 10 50 28 -7.8 18
01:55 1013 29.91 843 24.89 9.5 49.2 28 -7.9 17.8
02:00 1013 29.91 843 24.89 9.7 49.4 27 -8.3 17.1
02:05 1013 29.91 843 24.89 9.8 49.6 28 -7.8 17.9
02:10 1013 29.91 843 24.89 9.5 49.1 28 -8.1 17.5
02:15 1013 29.91 843 24.89 9.6 49.3 28 -8 17.5
02:20 1013 29.91 843 24.89 9.8 49.7 27 -8.2 17.3
02:25 1013 29.91 843 24.89 9.9 49.8 28 -7.9 17.8
02:30 1013 29.91 843 24.89 10.2 50.4 26 -8.4 16.9
02:35 1013 29.91 843 24.89 10.2 50.3 27 -7.9 17.8
02:40 1013 29.91 843 24.89 10.1 50.1 27 -7.9 17.8
02:45 1013 29.91 843 24.89 10.1 50.2 27 -8.1 17.4
02:50 1013 29.91 843 24.89 10.2 50.4 26 -8.3 17.1
02:55 1013 29.91 843 24.89 10.4 50.7 26 -8.2 17.3
03:00 1013 29.91 842 24.86 10.3 50.6 27 -7.9 17.8
03:05 1013 29.91 842 24.86 9.8 49.7 28 -7.9 17.9
03:10 1013 29.91 842 24.86 9.8 49.7 27 -8.1 17.3
03:15 1013 29.91 842 24.86 9.8 49.6 28 -7.8 18
03:20 1013 29.91 842 24.86 9.8 49.6 28 -7.9 17.7
03:25 1013 29.91 842 24.86 9.7 49.5 28 -7.9 17.8
03:30 1013 29.91 842 24.86 9.5 49.1 29 -7.6 18.3
03:35 1013 29.91 842 24.86 9.2 48.6 30 -7.7 18.2
03:40 1013 29.91 842 24.86 9.1 48.4 30 -7.7 18.1
03:45 1013 29.91 842 24.86 9.2 48.5 29 -7.8 18
03:50 1013 29.91 842 24.86 9.5 49 29 -7.9 17.8
03:55 1013 29.91 842 24.86 9.5 49.1 28 -7.9 17.7
04:00 1013 29.91 842 24.86 9.6 49.3 28 -7.9 17.7
04:05 1013 29.91 842 24.86 9.8 49.7 28 -7.6 18.3
04:10 1013 29.91 842 24.86 9.6 49.2 29 -7.5 18.5
04:15 1013 29.91 842 24.86 9.3 48.7 30 -7.5 18.5
04:20 1013 29.91 842 24.86 9.2 48.5 30 -7.4 18.6
04:25 1013 29.91 842 24.86 9.1 48.3 30 -7.4 18.6
04:30 1012 29.88 842 24.86 9 48.2 30 -7.6 18.4
04:35 1012 29.88 842 24.86 9.1 48.3 30 -7.6 18.3
04:40 1012 29.88 842 24.86 9.3 48.7 30 -7.5 18.4
04:45 1012 29.88 841 24.83 9.3 48.7 30 -7.4 18.7
04:50 1012 29.88 841 24.83 9.4 48.9 29 -7.6 18.3
04:55 1012 29.88 841 24.83 9.5 49.2 29 -7.4 18.6
05:00 1012 29.88 841 24.83 9.3 48.7 31 -7 19.4
05:05 1012 29.88 841 24.83 9 48.3 30 -7.4 18.6
05:10 1012 29.88 841 24.83 9.4 48.9 30 -7.5 18.5
05:15 1012 29.88 841 24.83 9.9 49.8 28 -7.7 18.1
05:20 1012 29.88 841 24.83 10.3 50.6 28 -7.6 18.4
05:25 1012 29.88 841 24.83 10.4 50.7 28 -7.4 18.8
05:30 1012 29.88 841 24.83 10.3 50.6 28 -7.3 18.8
05:35 1012 29.88 841 24.83 10.2 50.4 28 -7.6 18.3
05:40 1012 29.88 841 24.83 10.4 50.7 28 -7.2 19
05:45 1012 29.88 841 24.83 10.3 50.6 28 -7.2 19
05:50 1012 29.88 841 24.83 10.2 50.3 29 -7 19.4
05:55 1012 29.88 841 24.83 9.9 49.9 29 -7.3 18.9
06:00 1012 29.88 841 24.83 10.1 50.2 29 -7.1 19.2
06:05 1012 29.88 841 24.83 10.2 50.4 28 -7.3 18.8
06:10 1012 29.88 841 24.83 10.3 50.5 29 -7.1 19.2
06:15 1012 29.88 841 24.83 10.1 50.3 30 -6.9 19.7
06:20 1011 29.85 841 24.83 10.2 50.3 28 -7.5 18.6
06:25 1011 29.85 841 24.83 10.6 51.1 28 -7.1 19.3
06:30 1011 29.85 841 24.83 10.4 50.8 29 -7 19.5
06:35 1011 29.85 841 24.83 10.1 50.2 30 -6.7 19.9
06:40 1011 29.85 841 24.83 10.2 50.3 30 -6.7 19.9
06:45 1011 29.85 841 24.83 9.9 49.9 30 -6.8 19.7
06:50 1012 29.88 841 24.83 10 49.9 30 -6.9 19.6
06:55 1011 29.85 841 24.83 10.1 50.1 29 -7 19.5
07:00 1011 29.85 841 24.83 10.2 50.4 29 -7.1 19.1
07:05 1011 29.85 841 24.83 10.4 50.8 29 -6.8 19.7
07:10 1011 29.85 841 24.83 10.5 50.9 29 -6.7 20
07:15 1011 29.85 841 24.83 10.3 50.5 30 -6.7 20
07:20 1011 29.85 841 24.83 10.2 50.4 29 -7 19.5
07:25 1011 29.85 841 24.83 10.6 51.1 27 -7.8 18
07:30 1011 29.85 840 24.81 12.1 53.8 22 -8.8 16.2
07:35 1011 29.85 840 24.81 12.6 54.6 26 -6.4 20.5
07:40 1011 29.85 840 24.81 11.9 53.5 26 -6.8 19.8
07:45 1011 29.85 840 24.81 11.8 53.2 26 -7.3 18.9
07:50 1011 29.85 840 24.81 12.2 54 24 -7.9 17.7
07:55 1011 29.85 840 24.81 12.6 54.7 27 -5.7 21.7
08:00 1011 29.85 840 24.81 11.5 52.6 29 -5.8 21.6
08:05 1011 29.85 840 24.81 11.2 52.1 29 -6 21.2
08:10 1011 29.85 840 24.81 11.2 52.1 27 -7 19.4
08:15 1011 29.85 840 24.81 11.6 52.8 27 -6.6 20.2
08:20 1011 29.85 840 24.81 12 53.6 27 -6.6 20.1
08:25 1011 29.85 840 24.81 12.6 54.7 25 -7.1 19.3
08:30 1011 29.85 840 24.81 13 55.3 24 -7 19.4
08:35 1011 29.85 840 24.81 13.2 55.8 24 -6.9 19.6
08:40 1011 29.85 840 24.81 13.4 56 24 -7 19.4
08:45 1011 29.85 840 24.81 14 57.2 23 -6.5 20.2
08:50 1011 29.85 840 24.81 15.5 59.9 20 -7.5 18.5
08:55 1011 29.85 840 24.81 16.3 61.3 20 -6.7 20
09:00 1011 29.85 840 24.81 16.5 61.7 18 -7.7 18.2
09:05 1010 29.83 840 24.81 16.7 62.1 19 -6.8 19.8
09:10 1010 29.83 840 24.81 16.7 62.1 20 -6.5 20.2
09:15 1010 29.83 839 24.78 16.9 62.3 18 -7.2 19
09:20 1010 29.83 839 24.78 17.2 62.9 17 -8.1 17.4
09:25 1010 29.83 839 24.78 17.3 63.1 18 -7.3 18.9
09:30 1010 29.83 839 24.78 17.6 63.7 16 -8.4 16.8
09:35 1010 29.83 839 24.78 17.8 64.1 18 -6.9 19.6
09:40 1010 29.83 839 24.78 18 64.4 16 -7.8 17.9
09:45 1010 29.83 839 24.78 18.2 64.7 16 -7.9 17.7
09:50 1010 29.83 839 24.78 18.1 64.5 16 -8 17.5
09:55 1010 29.83 839 24.78 18.2 64.7 16 -8.4 16.9
10:00 1010 29.83 839 24.78 18.3 64.9 15 -8.6 16.5
10:05 1010 29.83 839 24.78 18.4 65.1 15 -8.3 17.1
10:10 1010 29.83 839 24.78 18.5 65.3 16 -8 17.6
10:15 1010 29.83 839 24.78 18.5 65.3 16 -7.7 18.2
10:20 1010 29.83 839 24.78 18.3 64.9 16 -8 17.7
10:25 1010 29.83 839 24.78 18.2 64.8 15 -8.5 16.7
10:30 1010 29.83 839 24.78 18.3 65 16 -8.1 17.4
10:35 1010 29.83 839 24.78 18.9 66 15 -8 17.6
10:40 1010 29.83 839 24.78 19 66.1 15 -8 17.6
10:45 1010 29.83 839 24.78 18.7 65.6 16 -7.9 17.7
10:50 1010 29.83 839 24.78 18.6 65.5 16 -7.5 18.5
10:55 1010 29.83 839 24.78 18.6 65.4 15 -8.2 17.2
11:00 1010 29.83 839 24.78 18.8 65.9 15 -8.1 17.4
11:05 1009 29.8 839 24.78 18.8 65.8 15 -8 17.5
11:10 1009 29.8 839 24.78 18.6 65.5 15 -8.1 17.5
11:15 1010 29.83 839 24.78 18.7 65.6 15 -8.1 17.4
11:20 1010 29.83 839 24.78 18.6 65.5 16 -8 17.6
11:25 1010 29.83 839 24.78 18.7 65.6 16 -7.6 18.3
11:30 1010 29.83 839 24.78 18.8 65.8 16 -7.7 18.1
11:35 1010 29.83 839 24.78 18.6 65.5 17 -6.5 20.3
11:40 1009 29.8 839 24.78 18.6 65.6 16 -7.7 18.2
11:45 1009 29.8 839 24.78 18.6 65.5 17 -6.6 20.2
11:50 1009 29.8 839 24.78 18.8 65.8 16 -7.4 18.7
11:55 1009 29.8 838 24.75 18.8 65.8 16 -7.2 19.1
12:00 1009 29.8 838 24.75 18.9 66 18 -6.1 20.9
12:05 1009 29.8 838 24.75 18.9 66 16 -7.4 18.7
12:10 1009 29.8 838 24.75 19 66.3 15 -7.7 18.2
12:15 1009 29.8 838 24.75 19.3 66.7 15 -7.7 18.2
12:20 1009 29.8 838 24.75 19.7 67.5 16 -6.9 19.6
12:25 1009 29.8 838 24.75 19.8 67.6 16 -7 19.3
12:30 1009 29.8 838 24.75 20 68 15 -7.1 19.2
12:35 1009 29.8 838 24.75 19.9 67.9 15 -7.1 19.2
12:40 1009 29.8 838 24.75 20 68 15 -7 19.3
12:45 1009 29.8 838 24.75 20.3 68.6 15 -7.1 19.2
12:50 1009 29.8 838 24.75 20.5 68.8 15 -6.6 20.2
12:55 1009 29.8 838 24.75 20.5 68.8 15 -6.6 20
13:00 1009 29.8 838 24.75 20.7 69.3 16 -6 21.1
13:05 1009 29.8 838 24.75 20.8 69.5 15 -6.4 20.6
13:10 1009 29.8 838 24.75 20.4 68.7 16 -6.4 20.5
13:15 1009 29.8 838 24.75 20.1 68.1 16 -6.2 20.8
13:20 1009 29.8 838 24.75 20 67.9 16 -6.7 20
13:25 1009 29.8 838 24.75 20.3 68.6 16 -6.1 21
13:30 1009 29.8 838 24.75 20.4 68.6 16 -6.6 20.2
13:35 1009 29.8 838 24.75 20 68 16 -6.8 19.8
13:40 1009 29.8 838 24.75 20 68.1 16 -6.5 20.4
13:45 1009 29.8 838 24.75 19.9 67.9 16 -6.6 20.1
13:50 1009 29.8 838 24.75 20.1 68.3 15 -7.1 19.2
13:55 1009 29.8 838 24.75 20.2 68.3 16 -6.5 20.4
14:00 1009 29.8 838 24.75 20.2 68.3 16 -6.7 19.9
14:05 1009 29.8 838 24.75 20.2 68.4 15 -7 19.3
14:10 1008 29.77 838 24.75 20.5 68.9 16 -6.5 20.4
14:15 1009 29.8 838 24.75 20.4 68.8 16 -6.3 20.7
14:20 1008 29.77 838 24.75 20.8 69.4 16 -6.2 20.9
14:25 1009 29.8 838 24.75 20.6 69.1 15 -6.4 20.4
14:30 1009 29.8 838 24.75 20.2 68.4 16 -6.6 20.2
14:35 1009 29.8 838 24.75 20.1 68.2 15 -6.8 19.7
14:40 1009 29.8 838 24.75 20 68 16 -6.4 20.5
14:45 1009 29.8 838 24.75 19.7 67.4 15 -7.4 18.8
14:50 1009 29.8 838 24.75 19.5 67.1 16 -6.9 19.6
14:55 1009 29.8 838 24.75 19.5 67.1 17 -6.3 20.7
15:00 1008 29.77 838 24.75 19.7 67.4 17 -5.7 21.7
15:05 1008 29.77 838 24.75 19.5 67.2 18 -5 22.9
15:10 1008 29.77 837 24.72 19.5 67.2 17 -6.1 21
15:15 1008 29.77 838 24.75 19.6 67.3 19 -4.8 23.3
15:20 1008 29.77 837 24.72 19.7 67.5 18 -5.3 22.5
15:25 1008 29.77 837 24.72 19.4 66.8 17 -6.2 20.8
15:30 1008 29.77 838 24.75 19.4 66.9 18 -5.3 22.4
15:35 1008 29.77 838 24.75 19.7 67.4 17 -5.6 21.9
15:40 1008 29.77 838 24.75 19.9 67.8 17 -5.7 21.7
15:45 1008 29.77 837 24.72 19.9 67.7 17 -6 21.2
15:50 1008 29.77 837 24.72 19.9 67.8 16 -6.7 19.9
15:55 1008 29.77 837 24.72 19.8 67.6 16 -6.6 20.2
16:00 1008 29.77 837 24.72 20 68 16 -6.2 20.8
16:05 1008 29.77 837 24.72 19.9 67.8 17 -6 21.2
16:10 1008 29.77 837 24.72 20 68 16 -6.7 20
16:15 1008 29.77 837 24.72 19.9 67.8 16 -6.7 20
16:20 1008 29.77 837 24.72 20 67.9 16 -6.7 19.9
16:25 1008 29.77 837 24.72 19.8 67.6 15 -7.3 18.8
16:30 1008 29.77 837 24.72 19.7 67.5 15 -7.6 18.4
16:35 1008 29.77 837 24.72 19.6 67.2 16 -7.1 19.3
16:40 1008 29.77 837 24.72 19.6 67.2 15 -7.5 18.6
16:45 1008 29.77 837 24.72 19.3 66.8 15 -7.6 18.4
16:50 1008 29.77 837 24.72 19.4 66.8 16 -7.3 18.8
16:55 1008 29.77 837 24.72 19.1 66.4 16 -7.4 18.7
17:00 1008 29.77 837 24.72 19.2 66.6 15 -7.8 18
17:05 1008 29.77 837 24.72 19.3 66.7 16 -7.2 19
17:10 1008 29.77 838 24.75 19.5 67 15 -7.4 18.7
17:15 1008 29.77 838 24.75 19 66.3 16 -7.6 18.4
17:20 1008 29.77 838 24.75 19.1 66.4 16 -7.2 19
17:25 1008 29.77 838 24.75 19.3 66.8 16 -7.3 18.9
17:30 1009 29.8 838 24.75 19 66.2 16 -7.3 18.9
17:35 1009 29.8 838 24.75 18.9 66 17 -6.2 20.8
17:40 1009 29.8 838 24.75 17.6 63.7 30 -0 32
17:45 1009 29.8 838 24.75 15.8 60.5 33 -0.4 31.2
17:50 1009 29.8 838 24.75 15.3 59.6 34 -0.5 31.1
17:55 1009 29.8 838 24.75 15.1 59.1 34 -0.4 31.2
18:00 1009 29.8 838 24.75 15.1 59.2 34 -0.4 31.2
18:05 1009 29.8 838 24.75 15 59 36 0.1 32.2
18:10 1009 29.8 838 24.75 15 58.9 35 -0.3 31.4
18:15 1009 29.8 838 24.75 14.8 58.6 36 -0 32
18:20 1009 29.8 838 24.75 14.5 58.1 38 0.4 32.6
18:25 1009 29.8 839 24.78 14.4 57.9 39 0.7 33.3
18:30 1010 29.83 839 24.78 14.2 57.5 39 0.4 32.6
18:35 1010 29.83 839 24.78 13.8 56.9 40 0.4 32.8
18:40 1010 29.83 839 24.78 13.4 56.2 41 0.6 33.1
18:45 1010 29.83 839 24.78 13.1 55.6 42 0.5 33
18:50 1010 29.83 839 24.78 12.8 55.1 44 0.8 33.5
18:55 1010 29.83 840 24.81 12.3 54.1 46 1.1 33.9
19:00 1011 29.85 840 24.81 11.6 52.9 49 1.2 34.2
19:05 1011 29.85 840 24.81 11.3 52.3 49 1.1 34.1
19:10 1011 29.85 840 24.81 11 51.8 51 1.4 34.5
19:15 1011 29.85 840 24.81 10.4 50.8 54 1.4 34.6
19:20 1011 29.85 841 24.83 10 50.1 54 1.2 34.2
19:25 1012 29.88 841 24.83 10 50 54 1.1 33.9
19:30 1011 29.85 841 24.83 10.1 50.3 53 1 33.9
19:35 1012 29.88 841 24.83 10.1 50.2 54 1.3 34.3
19:40 1012 29.88 841 24.83 10 50.1 56 1.6 34.9
19:45 1012 29.88 841 24.83 9.6 49.3 58 1.7 35.1
19:50 1012 29.88 841 24.83 9 48.2 62 2.1 35.7
19:55 1012 29.88 841 24.83 8.6 47.4 65 2.4 36.3
20:00 1012 29.88 841 24.83 8.3 46.9 70 3.2 37.7
20:05 1012 29.88 841 24.83 8 46.5 71 3.1 37.7
20:10 1012 29.88 841 24.83 7.4 45.4 73 3 37.3
20:15 1012 29.88 841 24.83 7.1 44.7 74 2.8 37.1
20:20 1012 29.88 841 24.83 7.1 44.8 74 2.9 37.2
20:25 1012 29.88 841 24.83 7 44.7 75 3 37.3
20:30 1012 29.88 842 24.86 6.9 44.4 76 3 37.5
20:35 1012 29.88 841 24.83 6.9 44.5 76 3 37.4
20:40 1012 29.88 842 24.86 6.8 44.2 77 3.1 37.5
20:45 1012 29.88 842 24.86 6.7 44.1 76 2.9 37.2
20:50 1013 29.91 842 24.86 6.6 43.9 76 2.7 36.9
20:55 1013 29.91 842 24.86 6.7 44.1 75 2.6 36.8
21:00 1013 29.91 842 24.86 6.6 43.9 75 2.6 36.7
21:05 1013 29.91 842 24.86 6.4 43.5 77 2.6 36.7
21:10 1013 29.91 842 24.86 6.1 43.1 79 2.7 36.9
21:15 1013 29.91 842 24.86 6.1 43 81 3.1 37.5
21:20 1013 29.91 842 24.86 6.1 43 82 3.3 37.9
21:25 1013 29.91 842 24.86 6.2 43.1 82 3.4 38.1
21:30 1013 29.91 842 24.86 6.2 43.1 81 3.2 37.8
21:35 1013 29.91 842 24.86 6.1 43 83 3.3 38
21:40 1013 29.91 842 24.86 6 42.7 83 3.3 38
21:45 1013 29.91 842 24.86 5.9 42.6 84 3.4 38.1
21:50 1013 29.91 842 24.86 5.9 42.7 84 3.4 38.1
21:55 1013 29.91 842 24.86 6 42.9 83 3.3 37.9
22:00 1013 29.91 842 24.86 5.9 42.6 84 3.4 38.2
22:05 1013 29.91 842 24.86 5.9 42.6 83 3.1 37.7
22:10 1013 29.91 842 24.86 6 42.8 83 3.4 38
22:15 1013 29.91 842 24.86 5.7 42.3 84 3.2 37.7
22:20 1013 29.91 842 24.86 5.6 42 84 3.1 37.6
22:25 1013 29.91 842 24.86 5.4 41.7 87 3.3 38
22:30 1013 29.91 842 24.86 5.4 41.7 86 3.2 37.8
22:35 1013 29.91 842 24.86 5.3 41.5 86 3.2 37.7
22:40 1013 29.91 842 24.86 5.2 41.3 87 3.3 37.9
22:45 1013 29.91 842 24.86 5.2 41.3 88 3.3 38
22:50 1013 29.91 842 24.86 5.1 41.2 86 3.1 37.5
22:55 1013 29.91 843 24.89 5.3 41.6 86 3.3 37.9
23:00 1014 29.94 843 24.89 5.6 42 85 3.3 37.9
23:05 1014 29.94 843 24.89 5.6 42.1 85 3.3 38
23:10 1014 29.94 843 24.89 5.6 42.1 86 3.5 38.3
23:15 1014 29.94 843 24.89 5.6 42.2 87 3.7 38.6
23:20 1014 29.94 843 24.89 5.6 42.1 89 4 39.2
23:25 1013 29.91 843 24.89 5.5 41.8 89 3.8 38.8
23:30 1014 29.94 843 24.89 5.1 41.3 91 3.7 38.7
23:35 1013 29.91 843 24.89 5 41 92 3.7 38.7
23:40 1014 29.94 843 24.89 4.8 40.7 92 3.7 38.6
23:45 1013 29.91 843 24.89 4.6 40.3 92 3.5 38.3
23:50 1014 29.94 843 24.89 4.4 40 90 2.9 37.2
23:55 1014 29.94 843 24.89 4.3 39.7 91 2.9 37.2
24:00 1014 29.94 843 24.89 4.2 39.5 92 3.1 37.5